Time;durP1;ratioP1;P1;durP2;ratioP2;P2;SDS_P1;SDS_P2;PMS_P1;PMS_P2;Temp;Humidity;BMP_temperature;BMP_pressure;BME280_temperature;BME280_humidity;BME280_pressure;Samples;Min_cycle;Max_cycle;Signal;HPM_P1;HPM_P2
2022/09/14 00:01:07;;;;;;;3.60;3.30;;;;;;;20.81;73.80;156713.47;5083342;28;20443;-74
2022/09/14 00:03:34;;;;;;;3.70;3.40;;;;;;;20.76;74.25;156700.44;5083525;28;20431;-74
2022/09/14 00:06:04;;;;;;;4.70;4.10;;;;;;;20.71;74.51;156687.34;5045675;28;20459;-74
2022/09/14 00:08:32;;;;;;;4.17;3.60;;;;;;;20.61;75.23;156663.91;5032246;28;20459;-75
2022/09/14 00:10:58;;;;;;;3.80;3.50;;;;;;;20.58;75.41;156654.75;5083270;28;20454;-74
2022/09/14 00:13:25;;;;;;;4.47;3.77;;;;;;;20.69;75.43;156683.47;5049410;28;20949;-74
2022/09/14 00:15:52;;;;;;;4.00;3.60;;;;;;;20.60;75.75;156661.28;5059079;28;20526;-74
2022/09/14 00:18:18;;;;;;;4.20;3.17;;;;;;;20.57;76.13;156653.44;5085959;28;20472;-74
2022/09/14 00:20:45;;;;;;;5.33;4.10;;;;;;;20.56;76.13;156650.84;5054119;28;20446;-75
2022/09/14 00:23:12;;;;;;;3.90;3.60;;;;;;;20.52;77.93;156640.41;5050186;28;20430;-74
2022/09/14 00:25:40;;;;;;;3.47;3.17;;;;;;;20.49;78.12;156632.56;5083045;28;20445;-75
2022/09/14 00:28:06;;;;;;;3.50;2.90;;;;;;;20.49;76.39;156631.28;5053694;28;20934;-74
2022/09/14 00:30:33;;;;;;;3.73;3.30;;;;;;;20.51;77.01;156637.81;5054760;28;20442;-75
2022/09/14 00:33:00;;;;;;;4.10;3.57;;;;;;;20.55;77.52;156646.91;5046408;28;20449;-74
2022/09/14 00:35:27;;;;;;;2.90;2.70;;;;;;;20.55;78.49;156648.22;5034350;28;20450;-75
2022/09/14 00:37:53;;;;;;;4.60;3.30;;;;;;;20.67;77.77;156676.94;5039141;28;20466;-74
2022/09/14 00:40:20;;;;;;;3.80;3.50;;;;;;;20.67;77.56;156676.94;5054547;28;20435;-75
2022/09/14 00:42:48;;;;;;;3.60;2.90;;;;;;;20.61;78.53;156662.59;5091458;28;20442;-75
2022/09/14 00:45:17;;;;;;;3.70;3.40;;;;;;;20.58;81.62;156656.06;5057053;28;20446;-74
2022/09/14 00:47:44;;;;;;;3.57;3.27;;;;;;;20.55;81.37;156648.22;5086498;28;20462;-75
2022/09/14 00:50:11;;;;;;;5.70;3.30;;;;;;;20.52;81.60;156640.41;5086031;28;20514;-74
2022/09/14 00:52:41;;;;;;;3.50;3.20;;;;;;;20.48;82.32;156628.66;5069270;28;20441;-75
2022/09/14 00:55:10;;;;;;;8.13;3.60;;;;;;;20.45;84.50;156622.16;5084930;28;20456;-74
2022/09/14 00:57:40;;;;;;;3.60;3.30;;;;;;;20.44;83.42;156619.53;5042958;28;20573;-75
2022/09/14 01:00:10;;;;;;;3.63;3.33;;;;;;;20.42;82.38;156613.00;5054406;28;20838;-74
2022/09/14 01:02:37;;;;;;;3.97;3.17;;;;;;;20.40;81.30;156609.09;5086371;28;20849;-74
2022/09/14 01:05:05;;;;;;;4.53;3.40;;;;;;;20.39;81.16;156606.47;5039125;28;20478;-74
2022/09/14 01:07:44;;;;;;;3.17;2.87;;;;;;;20.38;82.05;156602.59;5086232;28;20546;-74
2022/09/14 01:10:23;;;;;;;5.20;3.63;;;;;;;20.38;80.78;156602.59;5065886;28;20451;-74
2022/09/14 01:13:01;;;;;;;3.07;2.87;;;;;;;20.39;81.99;156606.47;5080537;28;20454;-75
2022/09/14 01:15:37;;;;;;;3.93;3.37;;;;;;;20.41;82.89;156611.69;5084466;28;20477;-74
2022/09/14 01:18:07;;;;;;;4.53;3.70;;;;;;;20.41;82.92;156610.44;5043940;28;20500;-75
2022/09/14 01:20:36;;;;;;;4.90;4.07;;;;;;;20.39;83.82;156605.16;5085834;28;20438;-75
2022/09/14 01:23:08;;;;;;;5.13;3.77;;;;;;;20.37;86.27;156601.28;5085593;28;20777;-74
2022/09/14 01:26:14;;;;;;;5.43;4.17;;;;;;;20.36;88.72;156598.66;5053341;28;20510;-75
2022/09/14 01:28:48;;;;;;;4.50;3.40;;;;;;;20.27;88.91;156575.19;5058513;28;20470;-74
2022/09/14 01:31:18;;;;;;;10.97;5.50;;;;;;;20.21;97.08;156559.50;5053391;28;20419;-75
2022/09/14 01:33:48;;;;;;;11.77;4.70;;;;;;;19.92;100.00;156485.16;5051708;28;20479;-74
2022/09/14 01:36:15;;;;;;;7.37;5.30;;;;;;;19.70;100.00;156427.78;5053999;28;20431;-74
2022/09/14 01:38:44;;;;;;;5.70;4.60;;;;;;;19.55;100.00;156388.69;5084554;28;20466;-74
2022/09/14 01:41:13;;;;;;;6.73;3.30;;;;;;;19.52;100.00;156380.84;5085572;28;20485;-75
2022/09/14 01:43:44;;;;;;;3.73;3.00;;;;;;;19.54;100.00;156386.06;5050510;28;20451;-75
2022/09/14 01:46:14;;;;;;;4.60;2.60;;;;;;;19.58;100.00;156395.19;5052685;28;20453;-75
2022/09/14 01:48:44;;;;;;;4.00;2.87;;;;;;;19.54;100.00;156384.78;5053716;28;20477;-75
2022/09/14 01:51:13;;;;;;;4.90;2.93;;;;;;;19.55;100.00;156387.38;5051492;28;20450;-74
2022/09/14 01:53:42;;;;;;;7.00;3.20;;;;;;;19.52;100.00;156379.53;5071847;28;20418;-75
2022/09/14 01:56:14;;;;;;;5.73;3.00;;;;;;;19.54;100.00;156384.78;5085747;28;20836;-74
2022/09/14 01:58:46;;;;;;;3.70;2.30;;;;;;;19.52;100.00;156379.53;5085516;28;20498;-75
2022/09/14 02:01:15;;;;;;;6.97;2.80;;;;;;;19.52;100.00;156379.53;5051784;28;20438;-74
2022/09/14 02:03:47;;;;;;;4.53;2.97;;;;;;;19.48;100.00;156370.44;5087123;28;20469;-74
2022/09/14 02:06:18;;;;;;;3.47;2.20;;;;;;;19.50;100.00;156375.66;5048995;28;20882;-75
2022/09/14 02:08:46;;;;;;;3.07;2.17;;;;;;;19.50;100.00;156375.66;5085253;28;20806;-74
2022/09/14 02:11:12;;;;;;;5.97;2.63;;;;;;;19.51;100.00;156376.97;5052445;28;20423;-75
2022/09/14 02:13:39;;;;;;;3.87;2.53;;;;;;;19.52;100.00;156380.84;5083451;28;20443;-75
2022/09/14 02:16:07;;;;;;;3.87;2.53;;;;;;;19.51;100.00;156376.97;5052621;28;20553;-75
2022/09/14 02:18:34;;;;;;;3.83;3.00;;;;;;;19.48;100.00;156370.44;5067989;28;20989;-74
2022/09/14 02:21:04;;;;;;;5.07;2.30;;;;;;;19.43;100.00;156358.69;5098954;28;20458;-74
2022/09/14 02:23:30;;;;;;;3.50;2.63;;;;;;;19.42;100.00;156356.09;5089641;28;20816;-75
2022/09/14 02:25:58;;;;;;;3.63;2.50;;;;;;;19.42;100.00;156356.09;5084688;28;20439;-75
2022/09/14 02:28:24;;;;;;;4.53;2.90;;;;;;;19.42;100.00;156354.78;5052115;28;20446;-74
2022/09/14 02:30:58;;;;;;;3.53;3.23;;;;;;;19.40;100.00;156349.59;5051739;28;20937;-75
2022/09/14 02:33:31;;;;;;;4.30;2.90;;;;;;;19.38;100.00;156344.34;5083249;28;20451;-74
2022/09/14 02:36:02;;;;;;;2.73;2.53;;;;;;;19.36;100.00;156340.41;5079721;28;20784;-75
2022/09/14 02:38:34;;;;;;;4.43;3.00;;;;;;;19.40;100.00;156350.91;5050196;28;20528;-75
2022/09/14 02:41:04;;;;;;;4.70;3.80;;;;;;;19.37;100.00;156343.06;5051928;28;20438;-75
2022/09/14 02:43:37;;;;;;;5.13;3.97;;;;;;;19.37;100.00;156343.06;5050059;28;20505;-75
2022/09/14 02:46:09;;;;;;;3.67;3.37;;;;;;;19.38;100.00;156345.66;5052015;28;20439;-74
2022/09/14 02:48:40;;;;;;;3.23;2.93;;;;;;;19.36;100.00;156340.41;5051496;28;20462;-75
2022/09/14 02:51:14;;;;;;;4.27;3.87;;;;;;;19.28;100.00;156319.53;5049308;28;20459;-74
2022/09/14 02:53:44;;;;;;;5.00;3.70;;;;;;;19.19;100.00;156296.13;5085024;28;20830;-75
2022/09/14 02:56:11;;;;;;;4.13;3.40;;;;;;;19.16;100.00;156286.97;5070690;28;20442;-74
2022/09/14 02:58:40;;;;;;;4.50;4.07;;;;;;;19.11;100.00;156273.94;5070818;28;20466;-74
2022/09/14 03:01:08;;;;;;;5.07;4.00;;;;;;;19.14;100.00;156283.03;5062350;28;20485;-74
2022/09/14 03:03:36;;;;;;;5.10;4.50;;;;;;;19.15;100.00;156284.34;5077704;28;20436;-75
2022/09/14 03:06:04;;;;;;;5.67;4.50;;;;;;;19.12;100.00;156277.84;5050947;28;20870;-75
2022/09/14 03:08:31;;;;;;;7.70;4.37;;;;;;;19.12;100.00;156277.84;5051184;28;20438;-74
2022/09/14 03:10:57;;;;;;;4.63;4.10;;;;;;;19.14;100.00;156281.78;5051569;28;20451;-74
2022/09/14 03:13:24;;;;;;;10.10;4.50;;;;;;;19.14;100.00;156283.03;5083289;28;20952;-74
2022/09/14 03:15:51;;;;;;;4.50;3.80;;;;;;;19.16;100.00;156288.28;5083714;28;20963;-74
2022/09/14 03:18:17;;;;;;;4.60;3.90;;;;;;;19.19;100.00;156294.81;5084595;28;20852;-75
2022/09/14 03:20:46;;;;;;;5.87;3.90;;;;;;;19.17;100.00;156290.88;5051074;28;20482;-74
2022/09/14 03:23:13;;;;;;;6.47;4.17;;;;;;;19.18;100.00;156292.19;5083083;28;20439;-75
2022/09/14 03:25:41;;;;;;;4.60;4.20;;;;;;;19.20;100.00;156297.38;5082534;28;20435;-74
2022/09/14 03:28:08;;;;;;;5.30;4.50;;;;;;;19.11;100.00;156273.94;5089661;28;20925;-75
2022/09/14 03:30:35;;;;;;;4.63;4.23;;;;;;;19.10;100.00;156272.63;5081772;28;20454;-75
2022/09/14 03:33:02;;;;;;;4.80;4.13;;;;;;;19.10;100.00;156271.31;5050917;28;20806;-75
2022/09/14 03:35:29;;;;;;;5.83;4.53;;;;;;;19.05;100.00;156258.28;5050528;28;20450;-74
2022/09/14 03:37:58;;;;;;;4.77;4.03;;;;;;;19.28;100.00;156319.53;5051493;28;20442;-74
2022/09/14 03:40:25;;;;;;;5.57;4.60;;;;;;;19.16;100.00;156288.28;5082120;28;20516;-74
2022/09/14 03:42:52;;;;;;;5.13;4.63;;;;;;;19.00;100.00;156245.28;5054990;28;20469;-74
2022/09/14 03:45:20;;;;;;;5.20;4.70;;;;;;;18.92;100.00;156224.41;5052128;28;20451;-74
2022/09/14 03:47:47;;;;;;;6.27;4.77;;;;;;;18.93;100.00;156228.31;5050639;28;20438;-74
2022/09/14 03:50:15;;;;;;;4.47;4.00;;;;;;;18.84;100.00;156206.19;5048640;28;20471;-75
2022/09/14 03:52:41;;;;;;;4.97;4.47;;;;;;;18.81;100.00;156197.06;5082388;28;20462;-74
2022/09/14 03:55:10;;;;;;;5.03;4.57;;;;;;;18.77;100.00;156186.66;5051583;28;20432;-75
2022/09/14 03:57:38;;;;;;;4.40;3.97;;;;;;;18.79;100.00;156191.84;5082517;28;20579;-74
2022/09/14 04:00:06;;;;;;;4.97;4.47;;;;;;;18.76;100.00;156185.34;5050705;28;20506;-75
2022/09/14 04:02:37;;;;;;;4.93;4.53;;;;;;;18.74;100.00;156178.84;5050188;28;20466;-75
2022/09/14 04:05:05;;;;;;;7.47;4.60;;;;;;;18.74;100.00;156180.09;5050628;28;20534;-74
2022/09/14 04:07:32;;;;;;;4.80;4.40;;;;;;;18.76;100.00;156185.34;5049528;28;20486;-74
2022/09/14 04:09:58;;;;;;;6.20;4.57;;;;;;;18.76;100.00;156184.03;5080891;28;20451;-75
2022/09/14 04:12:26;;;;;;;6.53;4.80;;;;;;;18.72;100.00;156173.59;5083208;28;20529;-74
2022/09/14 04:14:53;;;;;;;8.00;5.80;;;;;;;18.72;100.00;156174.91;5082797;28;20451;-74
2022/09/14 04:17:21;;;;;;;5.63;4.97;;;;;;;18.73;100.00;156177.53;5081814;28;20558;-75
2022/09/14 04:19:47;;;;;;;6.03;5.53;;;;;;;18.71;100.00;156172.31;5082885;28;20470;-74
2022/09/14 04:22:14;;;;;;;5.37;4.87;;;;;;;18.73;100.00;156177.53;5050219;28;20431;-74
2022/09/14 04:24:40;;;;;;;5.80;5.17;;;;;;;18.72;100.00;156173.59;5052867;28;20446;-75
2022/09/14 04:27:07;;;;;;;5.80;5.30;;;;;;;18.75;100.00;156181.41;5085904;28;20975;-75
2022/09/14 04:29:35;;;;;;;5.93;5.37;;;;;;;18.73;100.00;156176.22;5082105;28;20470;-74
2022/09/14 04:32:02;;;;;;;6.70;6.10;;;;;;;18.69;100.00;156165.81;5048666;28;20446;-74
2022/09/14 04:34:29;;;;;;;6.90;5.40;;;;;;;18.66;100.00;156159.31;5044325;28;20453;-75
2022/09/14 04:36:56;;;;;;;6.50;5.87;;;;;;;18.69;100.00;156165.81;5039535;28;20436;-74
2022/09/14 04:39:22;;;;;;;7.90;6.90;;;;;;;18.62;100.00;156147.53;5064271;28;20479;-74
2022/09/14 04:41:49;;;;;;;6.67;6.10;;;;;;;18.63;100.00;156150.16;5044814;28;20436;-75
2022/09/14 04:44:16;;;;;;;8.33;6.50;;;;;;;18.65;100.00;156155.38;5033022;28;20457;-74
2022/09/14 04:46:44;;;;;;;9.50;6.60;;;;;;;18.60;100.00;156142.34;5049375;28;20804;-74
2022/09/14 04:49:11;;;;;;;7.83;7.10;;;;;;;18.60;100.00;156142.34;5050033;28;20472;-74
2022/09/14 04:51:38;;;;;;;8.03;6.90;;;;;;;18.58;100.00;156138.44;5049923;28;20430;-75
2022/09/14 04:54:06;;;;;;;9.30;7.37;;;;;;;18.53;100.00;156124.13;5033659;28;20455;-74
2022/09/14 04:56:35;;;;;;;8.70;6.73;;;;;;;18.55;100.00;156130.63;5060652;28;20481;-75
2022/09/14 04:59:04;;;;;;;7.53;6.70;;;;;;;18.56;100.00;156133.19;5038717;28;20526;-74
2022/09/14 05:01:33;;;;;;;7.57;6.97;;;;;;;18.57;100.00;156134.53;5026475;28;20431;-74
2022/09/14 05:04:02;;;;;;;8.03;7.33;;;;;;;18.58;100.00;156138.44;5041043;28;20833;-74
2022/09/14 05:06:30;;;;;;;7.90;7.10;;;;;;;18.56;100.00;156133.19;5049847;28;20462;-74
2022/09/14 05:08:58;;;;;;;8.73;7.33;;;;;;;18.57;100.00;156134.53;5082402;28;20439;-74
2022/09/14 05:11:27;;;;;;;7.03;6.33;;;;;;;18.58;100.00;156138.44;5050765;28;20438;-74
2022/09/14 05:13:55;;;;;;;8.13;7.10;;;;;;;18.53;100.00;156125.38;5051328;28;20427;-75
2022/09/14 05:16:24;;;;;;;7.40;6.70;;;;;;;18.57;100.00;156134.53;5060987;28;20445;-74
2022/09/14 05:18:52;;;;;;;7.40;6.60;;;;;;;18.57;100.00;156135.84;5059075;28;20536;-76
2022/09/14 05:21:20;;;;;;;7.30;6.60;;;;;;;18.61;100.00;156144.97;5080850;28;20871;-76
2022/09/14 05:23:47;;;;;;;7.13;5.90;;;;;;;18.65;100.00;156155.38;5043286;28;20439;-76
2022/09/14 05:26:14;;;;;;;7.67;7.00;;;;;;;18.66;100.00;156159.31;5047227;28;20450;-76
2022/09/14 05:28:41;;;;;;;7.83;7.13;;;;;;;18.68;100.00;156163.19;5057159;28;20454;-76
2022/09/14 05:31:09;;;;;;;7.77;6.87;;;;;;;18.73;100.00;156176.22;5052919;28;20439;-76
2022/09/14 05:33:36;;;;;;;6.50;5.90;;;;;;;18.71;100.00;156171.00;5053872;28;20454;-76
2022/09/14 05:36:05;;;;;;;7.70;7.00;;;;;;;18.76;100.00;156185.34;5051000;28;20451;-76
2022/09/14 05:38:34;;;;;;;7.10;6.40;;;;;;;18.80;100.00;156194.44;5046989;28;20435;-76
2022/09/14 05:41:01;;;;;;;7.23;6.63;;;;;;;18.82;100.00;156199.69;5079022;28;20455;-77
2022/09/14 05:43:28;;;;;;;6.57;5.90;;;;;;;18.84;100.00;156206.19;5073556;28;20522;-76
2022/09/14 05:45:55;;;;;;;7.00;6.40;;;;;;;18.91;100.00;156221.78;5045199;28;20459;-76
2022/09/14 05:48:22;;;;;;;7.57;6.97;;;;;;;18.92;100.00;156225.72;5051059;28;20813;-76
2022/09/14 05:50:49;;;;;;;6.70;6.17;;;;;;;18.95;100.00;156233.56;5047921;28;20526;-76
2022/09/14 05:53:15;;;;;;;9.40;6.70;;;;;;;18.97;100.00;156238.75;5049453;28;20437;-77
2022/09/14 05:55:43;;;;;;;7.73;6.37;;;;;;;19.02;100.00;156250.47;5084928;28;20461;-76
2022/09/14 05:58:12;;;;;;;9.70;5.60;;;;;;;19.07;100.00;156264.81;5085108;28;20524;-76
2022/09/14 06:00:39;;;;;;;8.63;6.47;;;;;;;19.14;100.00;156283.03;5085594;28;20485;-76
2022/09/14 06:03:06;;;;;;;8.50;5.60;;;;;;;19.22;100.00;156303.88;5051989;28;20474;-76
2022/09/14 06:05:34;;;;;;;6.13;5.63;;;;;;;19.27;100.00;156316.91;5073601;28;20452;-77
2022/09/14 06:08:01;;;;;;;6.10;5.57;;;;;;;19.32;100.00;156330.00;5046979;28;20470;-77
2022/09/14 06:10:27;;;;;;;7.37;6.40;;;;;;;19.52;100.00;156380.84;5052849;28;20465;-76
2022/09/14 06:12:55;;;;;;;7.40;6.63;;;;;;;19.58;100.00;156395.19;5084646;28;20441;-77
2022/09/14 06:15:23;;;;;;;7.27;6.03;;;;;;;19.63;100.00;156408.22;5083315;28;20454;-77
2022/09/14 06:17:50;;;;;;;6.33;5.83;;;;;;;19.58;100.00;156396.50;5031980;28;20443;-76
2022/09/14 06:20:17;;;;;;;5.43;4.97;;;;;;;19.64;100.00;156410.84;5031275;28;20569;-76
2022/09/14 06:22:44;;;;;;;7.57;6.70;;;;;;;19.71;100.00;156430.41;5031234;28;20450;-77
2022/09/14 06:25:11;;;;;;;7.30;5.90;;;;;;;19.83;100.00;156460.41;5081596;28;20435;-77
2022/09/14 06:27:38;;;;;;;6.43;5.70;;;;;;;19.87;100.00;156470.81;5073939;28;20531;-76
2022/09/14 06:30:07;;;;;;;5.83;5.33;;;;;;;19.92;100.00;156483.84;5048286;28;20476;-76
2022/09/14 06:32:34;;;;;;;5.40;4.90;;;;;;;19.97;100.00;156496.88;5033887;28;20434;-77
2022/09/14 06:35:02;;;;;;;7.00;6.20;;;;;;;20.08;100.00;156524.25;5034058;28;20487;-77
2022/09/14 06:37:29;;;;;;;7.13;5.60;;;;;;;20.13;100.00;156538.63;5082697;28;20438;-77
2022/09/14 06:39:55;;;;;;;6.00;5.50;;;;;;;20.15;100.00;156542.56;5051492;28;20466;-77
2022/09/14 06:42:22;;;;;;;5.97;4.80;;;;;;;20.18;100.00;156551.66;5051824;28;20797;-77
2022/09/14 06:44:51;;;;;;;5.93;5.37;;;;;;;20.20;100.00;156556.84;5049318;28;20989;-77
2022/09/14 06:47:19;;;;;;;5.87;5.47;;;;;;;20.22;100.00;156562.13;5052249;28;20550;-77
2022/09/14 06:49:48;;;;;;;6.27;5.67;;;;;;;20.24;100.00;156566.06;5051956;28;20463;-77
2022/09/14 06:52:15;;;;;;;5.83;5.27;;;;;;;20.21;100.00;156559.50;5059342;28;20438;-75
2022/09/14 06:54:41;;;;;;;6.50;5.87;;;;;;;20.23;100.00;156564.69;5049575;28;20727;-74
2022/09/14 06:57:08;;;;;;;6.67;6.03;;;;;;;20.21;100.00;156558.19;5050440;28;20457;-75
2022/09/14 06:59:35;;;;;;;6.63;5.23;;;;;;;20.21;100.00;156559.50;5065664;28;20590;-84
2022/09/14 07:02:02;;;;;;;6.07;5.40;;;;;;;20.23;100.00;156564.69;5080917;28;20466;-84
2022/09/14 07:04:30;;;;;;;5.90;5.30;;;;;;;20.31;100.00;156585.63;5079397;28;20459;-84
2022/09/14 07:06:56;;;;;;;6.57;5.70;;;;;;;20.39;100.00;156605.16;5048881;28;20443;-85
2022/09/14 07:09:24;;;;;;;6.20;5.13;;;;;;;20.43;100.00;156616.94;5090345;28;20446;-84
2022/09/14 07:11:50;;;;;;;5.67;5.17;;;;;;;20.49;100.00;156632.56;5035459;28;20547;-85
2022/09/14 07:14:18;;;;;;;5.77;5.07;;;;;;;20.50;100.00;156635.19;5028912;28;20444;-84
2022/09/14 07:16:45;;;;;;;5.77;5.27;;;;;;;20.55;100.00;156646.91;5060577;28;20775;-85
2022/09/14 07:19:14;;;;;;;9.03;5.67;;;;;;;20.72;100.00;156691.28;5029298;28;20531;-84
2022/09/14 07:21:42;;;;;;;5.73;5.23;;;;;;;21.03;100.00;156770.88;5045946;28;20431;-85
2022/09/14 07:24:09;;;;;;;5.60;5.10;;;;;;;21.20;100.00;156816.63;5047102;28;20442;-85
2022/09/14 07:26:39;;;;;;;6.03;5.27;;;;;;;21.28;100.00;156834.88;5055920;28;20515;-84
2022/09/14 07:29:12;;;;;;;6.40;5.57;;;;;;;21.27;100.00;156833.56;5054364;28;20453;-85
2022/09/14 07:31:41;;;;;;;6.23;5.30;;;;;;;21.32;100.00;156845.31;5052219;28;20434;-85
2022/09/14 07:34:08;;;;;;;5.17;4.77;;;;;;;21.37;100.00;156859.66;5063933;28;20817;-84
2022/09/14 07:36:36;;;;;;;5.50;4.97;;;;;;;21.48;100.00;156888.38;5069522;28;20426;-84
2022/09/14 07:39:06;;;;;;;5.87;5.30;;;;;;;21.62;100.00;156923.63;5051392;28;20478;-84
2022/09/14 07:41:33;;;;;;;5.93;5.20;;;;;;;21.72;100.00;156951.06;5083517;28;20471;-84
2022/09/14 07:44:02;;;;;;;7.00;5.57;;;;;;;21.84;100.00;156982.38;5065302;28;20449;-84
2022/09/14 07:46:32;;;;;;;5.60;4.97;;;;;;;22.14;100.00;157058.16;5063231;28;20459;-84
2022/09/14 07:49:00;;;;;;;5.23;4.57;;;;;;;22.35;100.00;157113.00;5054229;28;20475;-84
2022/09/14 07:51:28;;;;;;;5.53;5.03;;;;;;;22.48;100.00;157146.97;5083571;28;20525;-84
2022/09/14 07:53:55;;;;;;;6.10;5.40;;;;;;;22.77;100.00;157221.53;5047516;28;20445;-84
2022/09/14 07:56:24;;;;;;;5.00;4.50;;;;;;;22.92;100.00;157262.03;5082727;28;20511;-84
2022/09/14 07:58:53;;;;;;;4.90;4.40;;;;;;;23.16;100.00;157322.13;5104523;28;20778;-84
2022/09/14 08:01:20;;;;;;;5.83;4.40;;;;;;;23.35;100.00;157371.78;5060071;28;20482;-84
2022/09/14 08:03:47;;;;;;;6.13;4.70;;;;;;;23.50;100.00;157411.03;5048773;28;20446;-84
2022/09/14 08:06:15;;;;;;;4.80;4.30;;;;;;;23.54;100.00;157422.78;5046765;28;20447;-84
2022/09/14 08:08:44;;;;;;;4.60;4.20;;;;;;;23.46;100.00;157400.56;5081114;28;20490;-84
2022/09/14 08:11:11;;;;;;;4.87;4.47;;;;;;;23.74;100.00;157472.47;5084902;28;20435;-85
2022/09/14 08:13:41;;;;;;;4.77;4.37;;;;;;;23.97;100.00;157532.59;5051189;28;20513;-84
2022/09/14 08:16:08;;;;;;;5.30;4.70;;;;;;;24.03;100.00;157549.63;5075849;28;20516;-84
2022/09/14 08:18:36;;;;;;;4.73;4.17;;;;;;;24.28;100.00;157612.44;5083256;28;20509;-85
2022/09/14 08:21:04;;;;;;;6.60;4.20;;;;;;;24.44;100.00;157654.25;5084779;28;20474;-84
2022/09/14 08:23:31;;;;;;;4.47;3.83;;;;;;;24.49;99.75;157667.38;5084382;28;20441;-84
2022/09/14 08:26:02;;;;;;;4.70;4.30;;;;;;;24.41;98.51;157646.47;5051281;28;20466;-84
2022/09/14 08:28:28;;;;;;;4.20;3.70;;;;;;;24.29;98.23;157615.03;5051249;28;20778;-85
2022/09/14 08:31:02;;;;;;;4.63;4.00;;;;;;;24.11;97.15;157570.59;5052064;28;20812;-84
2022/09/14 08:33:28;;;;;;;4.23;3.93;;;;;;;24.00;98.87;157541.78;5039314;28;20452;-84
2022/09/14 08:35:55;;;;;;;5.63;4.10;;;;;;;23.88;100.00;157510.38;5059586;28;20454;-84
2022/09/14 08:38:21;;;;;;;5.20;4.03;;;;;;;23.84;98.57;157499.94;5059484;28;20976;-84
2022/09/14 08:40:50;;;;;;;5.67;4.77;;;;;;;23.90;98.64;157514.31;5085120;28;20566;-84
2022/09/14 08:43:18;;;;;;;4.60;4.20;;;;;;;23.99;98.94;157537.81;5081756;28;20529;-84
2022/09/14 08:45:46;;;;;;;4.50;4.10;;;;;;;23.96;97.07;157531.28;5082634;28;20451;-84
2022/09/14 08:48:19;;;;;;;5.00;4.20;;;;;;;23.87;97.99;157507.78;5059931;28;20980;-84
2022/09/14 08:50:46;;;;;;;6.20;4.03;;;;;;;23.86;98.29;157505.16;5100924;28;20450;-84
2022/09/14 08:53:12;;;;;;;4.27;3.93;;;;;;;23.88;96.99;157509.09;5078309;28;20442;-85
2022/09/14 08:55:42;;;;;;;4.67;4.20;;;;;;;23.82;99.66;157494.72;5065264;28;20504;-85
2022/09/14 08:58:19;;;;;;;4.40;4.00;;;;;;;23.77;97.68;157481.66;5060682;28;20444;-84
2022/09/14 09:00:51;;;;;;;5.13;4.20;;;;;;;23.88;96.19;157510.38;5047806;28;20561;-85
2022/09/14 09:03:59;;;;;;;4.00;3.70;;;;;;;23.94;96.67;157524.75;5054610;28;20769;-85
2022/09/14 09:06:32;;;;;;;4.20;3.80;;;;;;;23.92;96.21;157519.53;5043535;28;20442;-85
2022/09/14 09:09:04;;;;;;;4.30;3.90;;;;;;;24.01;95.93;157543.09;5094710;28;20454;-85
2022/09/14 09:11:35;;;;;;;4.17;3.77;;;;;;;24.07;95.34;157560.06;5057054;28;20515;-85
2022/09/14 09:14:06;;;;;;;4.40;3.97;;;;;;;24.25;95.39;157605.91;5073383;28;20450;-85
2022/09/14 09:16:32;;;;;;;4.40;3.40;;;;;;;24.43;92.46;157653.00;5053859;28;20481;-85
2022/09/14 09:19:02;;;;;;;6.20;3.90;;;;;;;24.38;91.09;157638.59;5055221;28;20587;-85
2022/09/14 09:21:32;;;;;;;3.70;3.40;;;;;;;24.49;92.35;157667.38;5054299;28;20528;-85
2022/09/14 09:24:15;;;;;;;6.13;3.83;;;;;;;24.53;91.70;157677.81;5053215;28;20451;-85
2022/09/14 09:26:41;;;;;;;4.17;3.87;;;;;;;24.49;90.40;157667.38;5073574;28;20512;-85
2022/09/14 09:29:09;;;;;;;6.60;4.30;;;;;;;24.52;92.10;157675.19;5104610;28;20519;-85
2022/09/14 09:31:57;;;;;;;5.60;4.20;;;;;;;24.50;90.54;157669.97;5046051;28;20444;-85
2022/09/14 09:34:51;;;;;;;8.70;4.13;;;;;;;24.45;89.83;157656.91;5041470;28;20452;-85
2022/09/14 09:37:40;;;;;;;4.43;3.70;;;;;;;24.45;92.99;157656.91;5049464;28;20558;-85
2022/09/14 09:40:14;;;;;;;5.70;4.10;;;;;;;24.54;88.68;157681.72;5085893;28;20458;-85
2022/09/14 09:43:06;;;;;;;4.20;3.80;;;;;;;24.63;88.55;157705.28;5087702;28;20781;-85
2022/09/14 09:45:47;;;;;;;4.60;4.20;;;;;;;24.72;89.79;157727.53;5048548;28;20470;-85
2022/09/14 09:48:14;;;;;;;6.40;3.80;;;;;;;24.76;87.87;157739.31;5052299;28;20478;-85
2022/09/14 09:50:47;;;;;;;5.23;3.97;;;;;;;24.72;90.82;157727.53;5033773;28;20455;-85
2022/09/14 09:53:18;;;;;;;3.67;3.37;;;;;;;24.67;87.88;157715.78;5041058;28;20983;-85
2022/09/14 09:55:48;;;;;;;4.10;3.70;;;;;;;24.75;87.32;157735.41;5054957;28;20538;-85
2022/09/14 09:58:31;;;;;;;6.90;3.90;;;;;;;24.70;86.62;157722.31;5082540;28;20492;-86
2022/09/14 10:01:00;;;;;;;4.30;4.00;;;;;;;24.73;86.65;157730.13;5072276;28;20528;-85
2022/09/14 10:03:33;;;;;;;5.67;3.97;;;;;;;24.77;83.99;157741.94;5055312;28;20925;-85
2022/09/14 10:06:06;;;;;;;5.77;3.70;;;;;;;24.68;85.26;157718.38;5055115;28;20451;-85
2022/09/14 10:08:40;;;;;;;4.20;3.73;;;;;;;24.71;84.38;157726.22;5037851;28;20435;-85
2022/09/14 10:11:27;;;;;;;3.80;3.50;;;;;;;24.76;83.61;157739.31;5033928;28;20447;-85
2022/09/14 10:13:53;;;;;;;3.90;3.60;;;;;;;24.78;87.51;157744.56;5045852;28;20772;-85
2022/09/14 10:16:20;;;;;;;4.83;3.70;;;;;;;24.86;84.03;157762.94;5076312;28;20447;-85
2022/09/14 10:18:48;;;;;;;4.30;3.73;;;;;;;24.79;83.48;157745.88;5034379;28;20490;-86
2022/09/14 10:21:16;;;;;;;5.93;3.87;;;;;;;24.78;87.20;157743.25;5033222;28;20666;-84
2022/09/14 10:23:44;;;;;;;4.90;3.80;;;;;;;24.81;84.99;157751.13;5035292;28;20456;-86
2022/09/14 10:26:22;;;;;;;5.07;4.03;;;;;;;24.91;88.11;157776.00;5034034;28;20546;-86
2022/09/14 10:28:49;;;;;;;4.30;3.97;;;;;;;24.85;86.02;157761.59;5066278;28;20427;-86
2022/09/14 10:31:21;;;;;;;7.07;3.90;;;;;;;24.86;85.38;157762.94;5044707;28;20430;-86
2022/09/14 10:33:53;;;;;;;6.67;3.77;;;;;;;24.89;85.76;157772.03;5058157;28;20848;-85
2022/09/14 10:36:24;;;;;;;4.60;4.20;;;;;;;24.91;85.27;157776.00;5047631;28;20443;-86
2022/09/14 10:38:54;;;;;;;3.73;3.43;;;;;;;24.96;84.05;157790.41;5051296;28;20839;-85
2022/09/14 10:41:26;;;;;;;4.00;3.60;;;;;;;24.99;84.34;157798.25;5053982;28;20536;-86
2022/09/14 10:44:06;;;;;;;3.83;3.53;;;;;;;25.02;84.37;157806.06;5067405;28;20867;-85
2022/09/14 10:46:39;;;;;;;3.77;3.47;;;;;;;25.08;84.43;157821.78;5072828;28;20528;-86
2022/09/14 10:49:30;;;;;;;5.40;4.13;;;;;;;25.16;82.67;157842.72;5074167;28;20576;-86
2022/09/14 10:52:03;;;;;;;4.07;3.63;;;;;;;25.21;84.36;157855.81;5075316;28;20489;-86
2022/09/14 10:54:52;;;;;;;6.40;3.83;;;;;;;25.21;82.03;157855.81;5079931;28;20955;-85
2022/09/14 10:57:25;;;;;;;4.23;3.80;;;;;;;25.22;81.62;157858.44;5066733;28;20451;-86
2022/09/14 10:59:53;;;;;;;4.77;3.47;;;;;;;25.26;81.53;157868.88;5066330;28;20801;-85
2022/09/14 11:03:10;;;;;;;4.63;3.60;;;;;;;25.36;81.87;157893.78;5041424;28;20462;-86
2022/09/14 11:05:38;;;;;;;3.77;3.37;;;;;;;25.36;80.21;157895.03;5053371;28;20485;-86
2022/09/14 11:08:13;;;;;;;4.33;3.73;;;;;;;25.41;81.39;157908.19;5053707;28;20442;-86
2022/09/14 11:11:17;;;;;;;3.63;3.33;;;;;;;25.48;81.42;157923.91;5053281;28;21232;-86
2022/09/14 11:13:56;;;;;;;3.93;3.53;;;;;;;25.47;81.40;157921.31;5038684;28;20452;-86
2022/09/14 11:16:43;;;;;;;3.40;3.10;;;;;;;25.60;79.19;157955.34;5053927;28;20805;-86
2022/09/14 11:19:16;;;;;;;3.57;3.27;;;;;;;25.68;79.76;157976.28;5052756;28;20442;-86
2022/09/14 11:21:50;;;;;;;5.30;3.70;;;;;;;25.75;78.12;157994.59;5042457;28;20562;-86
2022/09/14 11:24:20;;;;;;;7.37;3.50;;;;;;;25.81;78.57;158010.31;5049012;28;20428;-86
2022/09/14 11:26:56;;;;;;;9.13;3.80;;;;;;;25.85;79.24;158020.78;5033819;28;20428;-86
2022/09/14 11:29:25;;;;;;;5.23;3.77;;;;;;;25.85;81.06;158020.78;5033660;28;20443;-86
2022/09/14 11:31:55;;;;;;;4.20;3.40;;;;;;;25.82;82.29;158012.91;5038122;28;20798;-86